Terminal Aerodrome Forecast
Issued by NWS

Home | Current Version | Previous Version | Text Only | Print | Product List | Glossary On
Versions: 1 2 3 4 5 6 7 8 9 10 11 12 13 14 15 16 17 18 19 20 21 22 23 24 25 26 27 28 29 30 31 32 33 34 35 36
406
FTUS41 KBOX 211735
TAFACK
TAF
KACK 211735Z 2118/2218 26012KT 6SM BR OVC006
     FM220000 25010G18KT 6SM BR SCT009
     FM220100 25009KT 5SM BR SCT250
     FM221100 32004KT 6SM BR BKN130=

USA.gov is the U.S. government's official web portal to all federal, state and local government web resources and services.